Time;durP1;ratioP1;P1;durP2;ratioP2;P2;SDS_P1;SDS_P2;PMS_P1;PMS_P2;Temp;Humidity;BMP_temperature;BMP_pressure;BME280_temperature;BME280_humidity;BME280_pressure;Samples;Min_cycle;Max_cycle;Signal;HPM_P1;HPM_P2
2023/03/02 16:33:40;;;;;;;17.27;8.55;;;9.10;98.30;;;;;;5029610;27;1223480;-68
2023/03/02 16:36:07;;;;;;;15.05;9.23;;;9.00;99.70;;;;;;5042545;28;20029;-68
2023/03/02 16:38:33;;;;;;;15.15;9.45;;;9.00;99.90;;;;;;5047261;28;20501;-67
2023/03/02 16:40:59;;;;;;;18.25;9.60;;;8.90;99.90;;;;;;5046820;28;20029;-68
2023/03/02 16:43:25;;;;;;;17.17;9.23;;;8.90;99.90;;;;;;5037434;28;20075;-68
2023/03/02 16:45:51;;;;;;;19.67;10.63;;;8.90;99.90;;;;;;5047140;28;20022;-68
2023/03/02 16:48:17;;;;;;;19.52;10.52;;;8.80;99.90;;;;;;5047258;28;20162;-68
2023/03/02 16:50:43;;;;;;;20.00;10.52;;;8.70;99.90;;;;;;5043941;28;20071;-66
2023/03/02 16:53:09;;;;;;;20.02;10.45;;;8.40;99.90;;;;;;5027867;28;20034;-70
2023/03/02 16:55:34;;;;;;;20.27;11.30;;;8.00;99.90;;;;;;5027153;28;20018;-70
2023/03/02 16:58:00;;;;;;;20.88;10.00;;;7.70;99.90;;;;;;5028266;28;20025;-67
2023/03/02 17:00:26;;;;;;;21.23;10.63;;;7.40;99.90;;;;;;5034735;28;20355;-66
2023/03/02 17:02:55;;;;;;;20.90;11.15;;;7.20;99.90;;;;;;5046243;28;20079;-67
2023/03/02 17:05:21;;;;;;;18.83;11.02;;;7.00;99.90;;;;;;5048555;28;20021;-68
2023/03/02 17:07:47;;;;;;;20.08;10.93;;;6.80;99.90;;;;;;5047633;28;20083;-68
2023/03/02 17:10:17;;;;;;;20.95;11.20;;;6.70;99.90;;;;;;5047768;28;20028;-68
2023/03/02 17:12:43;;;;;;;19.40;10.00;;;6.60;99.90;;;;;;5037926;28;20041;-67
2023/03/02 17:15:10;;;;;;;22.10;11.20;;;6.40;99.90;;;;;;5028544;28;20105;-67
2023/03/02 17:17:37;;;;;;;22.92;11.30;;;6.30;99.90;;;;;;5032658;28;20423;-67
2023/03/02 17:20:03;;;;;;;22.58;11.85;;;6.20;99.90;;;;;;5034509;28;20032;-66
2023/03/02 17:22:29;;;;;;;22.80;11.02;;;6.10;99.90;;;;;;5028186;28;20088;-67
2023/03/02 17:24:54;;;;;;;20.73;11.45;;;6.00;99.90;;;;;;5038871;28;20025;-67
2023/03/02 17:27:22;;;;;;;22.75;11.15;;;5.90;99.90;;;;;;5046500;28;20071;-67
2023/03/02 17:29:47;;;;;;;23.33;11.23;;;5.80;99.90;;;;;;5047418;28;20474;-67
2023/03/02 17:32:13;;;;;;;21.25;11.23;;;5.70;99.90;;;;;;5045266;28;20053;-69
2023/03/02 17:34:39;;;;;;;22.00;11.65;;;5.60;99.90;;;;;;5047410;28;20150;-67
2023/03/02 17:37:04;;;;;;;24.05;12.88;;;5.50;99.90;;;;;;5043939;28;20070;-68
2023/03/02 17:39:30;;;;;;;28.20;14.93;;;5.40;99.90;;;;;;5044828;28;20033;-68
2023/03/02 17:41:55;;;;;;;30.10;13.57;;;5.40;99.90;;;;;;5047828;28;20021;-67
2023/03/02 17:44:21;;;;;;;24.45;13.40;;;5.20;99.90;;;;;;5038130;28;20013;-66
2023/03/02 17:46:47;;;;;;;29.75;14.63;;;5.20;99.90;;;;;;5033458;28;20029;-68
2023/03/02 17:49:12;;;;;;;24.20;13.05;;;5.10;99.90;;;;;;5034167;28;20022;-68
2023/03/02 17:51:38;;;;;;;28.25;13.85;;;5.00;99.90;;;;;;5033653;28;20494;-66
2023/03/02 17:54:05;;;;;;;26.13;13.38;;;5.00;99.90;;;;;;5032198;28;20025;-66
2023/03/02 17:56:30;;;;;;;26.60;13.90;;;4.90;99.90;;;;;;5014213;28;20026;-66
2023/03/02 17:58:58;;;;;;;28.95;14.40;;;4.80;99.90;;;;;;5027382;28;20071;-67
2023/03/02 18:01:25;;;;;;;28.88;14.00;;;4.70;99.90;;;;;;5033341;28;20021;-66
2023/03/02 18:03:51;;;;;;;28.23;14.45;;;4.70;99.90;;;;;;5033575;28;20092;-66
2023/03/02 18:06:19;;;;;;;27.60;14.48;;;4.60;99.90;;;;;;5033203;28;20435;-68
2023/03/02 18:08:45;;;;;;;29.27;14.52;;;4.50;99.90;;;;;;5033837;28;20024;-66
2023/03/02 18:11:11;;;;;;;25.60;14.25;;;4.50;99.90;;;;;;5034619;28;20029;-66
2023/03/02 18:13:38;;;;;;;31.20;15.93;;;4.40;99.90;;;;;;5018180;28;20042;-66
2023/03/02 18:16:04;;;;;;;26.23;13.50;;;4.30;99.90;;;;;;5014811;28;20022;-68
2023/03/02 18:18:30;;;;;;;27.23;13.48;;;4.20;99.90;;;;;;5014204;28;20026;-66
2023/03/02 18:20:55;;;;;;;25.92;13.32;;;4.20;99.90;;;;;;5013288;28;20079;-67
2023/03/02 18:23:21;;;;;;;29.45;15.10;;;4.10;99.90;;;;;;5013393;28;20095;-66
2023/03/02 18:25:47;;;;;;;28.52;14.10;;;4.10;99.90;;;;;;5013393;28;20379;-68
2023/03/02 18:28:14;;;;;;;25.38;13.15;;;4.00;99.90;;;;;;5011528;28;20420;-67
2023/03/02 18:30:40;;;;;;;25.83;13.38;;;3.90;99.90;;;;;;5011713;28;20017;-67
2023/03/02 18:33:05;;;;;;;31.30;14.95;;;3.90;99.90;;;;;;5031460;28;20132;-67
2023/03/02 18:35:32;;;;;;;31.75;14.32;;;3.80;99.90;;;;;;5031952;28;20512;-67
2023/03/02 18:37:57;;;;;;;29.80;15.25;;;3.80;99.90;;;;;;5032686;28;20130;-68
2023/03/02 18:40:23;;;;;;;28.73;14.02;;;3.70;99.90;;;;;;5031554;28;20521;-67
2023/03/02 18:42:49;;;;;;;33.80;14.75;;;3.70;99.90;;;;;;5030912;28;20071;-67
2023/03/02 18:45:24;;;;;;;31.88;14.63;;;3.70;99.90;;;;;;5033403;28;20433;-68
2023/03/02 18:47:50;;;;;;;28.13;14.68;;;3.60;99.90;;;;;;5032521;28;20025;-67
2023/03/02 18:50:16;;;;;;;27.17;13.60;;;3.60;99.90;;;;;;5020425;28;20033;-68
2023/03/02 18:52:42;;;;;;;29.02;14.88;;;3.60;99.90;;;;;;5052574;28;20040;-68
2023/03/02 18:55:08;;;;;;;25.80;13.13;;;3.50;99.90;;;;;;5051919;28;20025;-69
2023/03/02 18:57:36;;;;;;;30.55;13.93;;;3.50;99.90;;;;;;5052131;28;20013;-66
2023/03/02 19:00:05;;;;;;;28.00;15.13;;;3.40;99.90;;;;;;5030984;28;20022;-67
2023/03/02 19:02:31;;;;;;;27.15;14.10;;;3.40;99.90;;;;;;5010717;28;20057;-67
2023/03/02 19:04:57;;;;;;;29.52;14.35;;;3.40;99.90;;;;;;5014206;28;20024;-66
2023/03/02 19:07:23;;;;;;;28.50;14.30;;;3.40;99.90;;;;;;5032605;28;20022;-68
2023/03/02 19:09:48;;;;;;;26.40;13.48;;;3.30;99.90;;;;;;5031627;28;20027;-67
2023/03/02 19:12:14;;;;;;;27.98;13.68;;;3.30;99.90;;;;;;5013469;28;20069;-67
2023/03/02 19:14:41;;;;;;;28.50;13.65;;;3.20;99.90;;;;;;5011068;28;20113;-67
2023/03/02 19:17:08;;;;;;;26.90;13.35;;;3.20;99.90;;;;;;5011505;28;20026;-67
2023/03/02 19:19:34;;;;;;;26.88;12.98;;;3.10;99.90;;;;;;5010998;28;20028;-67
2023/03/02 19:22:00;;;;;;;28.08;13.43;;;3.10;99.90;;;;;;5012472;28;20097;-67
2023/03/02 19:24:26;;;;;;;27.73;14.60;;;3.00;99.90;;;;;;5012682;28;20041;-67
2023/03/02 19:26:52;;;;;;;25.58;13.75;;;3.00;99.90;;;;;;5012024;28;20030;-67
2023/03/02 19:29:20;;;;;;;27.17;13.32;;;3.00;99.90;;;;;;5012543;28;20022;-66
2023/03/02 19:31:46;;;;;;;27.98;14.02;;;3.00;99.90;;;;;;5011284;28;20033;-69
2023/03/02 19:34:12;;;;;;;25.40;13.48;;;2.90;99.90;;;;;;5012629;28;20212;-68
2023/03/02 19:36:38;;;;;;;30.00;13.40;;;2.90;99.90;;;;;;5012345;28;20109;-68
2023/03/02 19:39:04;;;;;;;32.90;15.55;;;2.90;99.90;;;;;;5011741;28;20018;-69
2023/03/02 19:41:30;;;;;;;29.25;14.82;;;2.80;99.90;;;;;;5013524;28;20022;-67
2023/03/02 19:43:56;;;;;;;32.78;14.10;;;2.80;99.90;;;;;;5011753;28;20436;-68
2023/03/02 19:46:22;;;;;;;27.02;14.35;;;2.80;99.90;;;;;;5012877;28;20041;-68
2023/03/02 19:48:48;;;;;;;29.80;14.05;;;2.70;99.90;;;;;;5011702;28;20029;-68
2023/03/02 19:51:15;;;;;;;29.27;13.55;;;2.70;99.90;;;;;;5012898;28;20009;-68
2023/03/02 19:53:42;;;;;;;27.65;14.05;;;2.70;99.90;;;;;;5011125;28;20088;-68
2023/03/02 19:56:13;;;;;;;29.00;14.13;;;2.60;99.90;;;;;;5012040;28;20026;-67
2023/03/02 19:58:48;;;;;;;30.25;14.68;;;2.70;99.90;;;;;;5010908;28;20022;-68
2023/03/02 20:01:20;;;;;;;31.60;14.43;;;2.60;99.90;;;;;;5012972;28;20356;-68
2023/03/02 20:03:47;;;;;;;28.88;14.30;;;2.60;99.90;;;;;;5012659;28;20022;-67
2023/03/02 20:06:14;;;;;;;30.40;14.00;;;2.50;99.90;;;;;;5011788;28;20378;-68
2023/03/02 20:08:40;;;;;;;29.63;14.05;;;2.50;99.90;;;;;;5011413;28;20125;-68
2023/03/02 20:11:05;;;;;;;31.35;15.25;;;2.50;99.90;;;;;;5012032;28;20087;-68
2023/03/02 20:13:32;;;;;;;31.60;14.60;;;2.40;99.90;;;;;;5009431;28;20034;-69
2023/03/02 20:15:58;;;;;;;31.90;14.95;;;2.40;99.90;;;;;;5011967;28;20022;-68
2023/03/02 20:18:24;;;;;;;29.20;13.25;;;2.40;99.90;;;;;;5010537;28;20033;-67
2023/03/02 20:20:50;;;;;;;32.67;14.15;;;2.40;99.90;;;;;;5010966;28;20021;-68
2023/03/02 20:23:16;;;;;;;32.35;15.68;;;2.40;99.90;;;;;;5029730;28;20030;-68
2023/03/02 20:25:43;;;;;;;29.02;14.55;;;2.30;99.90;;;;;;5031409;28;20095;-68
2023/03/02 20:28:11;;;;;;;35.15;15.07;;;2.30;99.90;;;;;;5024070;28;20025;-68
2023/03/02 20:30:55;;;;;;;28.67;14.63;;;2.30;99.90;;;;;;5009943;28;20558;-68
2023/03/02 20:33:27;;;;;;;31.42;15.85;;;2.30;99.90;;;;;;5011323;28;20041;-68
2023/03/02 20:35:54;;;;;;;30.92;15.57;;;2.30;99.90;;;;;;5009188;28;20033;-68
2023/03/02 20:38:42;;;;;;;32.20;15.13;;;2.20;99.90;;;;;;5011381;28;20014;-67
2023/03/02 20:41:10;;;;;;;32.15;15.32;;;2.20;99.90;;;;;;5011252;28;20123;-68
2023/03/02 20:43:36;;;;;;;31.45;14.80;;;2.20;99.90;;;;;;5010423;28;20075;-69
2023/03/02 20:46:03;;;;;;;33.00;14.82;;;2.20;99.90;;;;;;5011151;28;20034;-68
2023/03/02 20:48:28;;;;;;;32.45;14.90;;;2.10;99.90;;;;;;5012953;28;20017;-68
2023/03/02 20:50:54;;;;;;;28.60;14.02;;;2.10;99.90;;;;;;5012065;28;20433;-69
